Time;durP1;ratioP1;P1;durP2;ratioP2;P2;SDS_P1;SDS_P2;PMS_P1;PMS_P2;Temp;Humidity;BMP_temperature;BMP_pressure;BME280_temperature;BME280_humidity;BME280_pressure;Samples;Min_cycle;Max_cycle;Signal;HPM_P1;HPM_P2
2022/06/04 00:00:36;;;;;;;2.40;2.30;;;;;;;;;;5012803;28;94609;-69
2022/06/04 00:03:02;;;;;;;5.10;3.13;;;;;;;;;;5016352;28;93362;-69
2022/06/04 00:05:31;;;;;;;3.83;2.83;;;;;;;;;;5012331;28;94239;-69
2022/06/04 00:07:58;;;;;;;4.72;3.03;;;;;;;;;;5013607;28;93354;-69
2022/06/04 00:16:02;;;;;;;4.13;3.38;;;;;;;;;;5016705;28;92454;-69
2022/06/04 00:18:29;;;;;;;7.97;3.80;;;;;;;;;;5016465;28;94017;-69
2022/06/04 00:20:55;;;;;;;4.53;3.17;;;;;;;;;;5014114;28;96551;-69
2022/06/04 00:23:22;;;;;;;4.97;3.17;;;;;;;;;;5021647;28;92562;-69
2022/06/04 00:25:50;;;;;;;6.68;3.30;;;;;;;;;;5039610;28;93910;-69
2022/06/04 00:28:17;;;;;;;3.72;3.42;;;;;;;;;;5036074;28;92461;-69
2022/06/04 00:30:46;;;;;;;6.95;3.42;;;;;;;;;;5036515;28;94210;-69
2022/06/04 00:33:13;;;;;;;5.68;3.38;;;;;;;;;;5036572;28;94360;-69
2022/06/04 00:35:40;;;;;;;4.80;3.72;;;;;;;;;;5035597;28;93069;-69
2022/06/04 00:38:07;;;;;;;8.15;4.20;;;;;;;;;;5022978;28;93155;-69
2022/06/04 00:40:48;;;;;;;4.75;3.53;;;;;;;;;;5021040;28;94013;-70
2022/06/04 00:43:15;;;;;;;3.80;3.40;;;;;;;;;;5036193;28;92547;-71
2022/06/04 00:45:42;;;;;;;5.38;3.60;;;;;;;;;;5034872;28;95060;-69
2022/06/04 00:48:09;;;;;;;5.72;3.88;;;;;;;;;;5038652;28;93087;-69
2022/06/04 00:50:37;;;;;;;9.30;4.10;;;;;;;;;;5035959;28;93294;-70
2022/06/04 00:53:06;;;;;;;5.68;3.63;;;;;;;;;;5034595;28;94197;-69
2022/06/04 00:55:38;;;;;;;6.53;4.45;;;;;;;;;;4995251;28;92523;-69
2022/06/04 00:58:08;;;;;;;4.85;4.47;;;;;;;;;;5009539;27;93263;-69
2022/06/04 01:00:38;;;;;;;3.97;3.63;;;;;;;;;;5015968;28;94131;-69
2022/06/04 01:03:10;;;;;;;5.88;4.25;;;;;;;;;;5015932;28;91728;-69
2022/06/04 01:05:36;;;;;;;6.07;4.90;;;;;;;;;;5015471;28;93719;-69
2022/06/04 01:08:15;;;;;;;5.22;4.72;;;;;;;;;;5014994;28;93228;-70
2022/06/04 01:10:47;;;;;;;5.15;4.65;;;;;;;;;;5016498;28;94891;-69
2022/06/04 01:13:29;;;;;;;5.10;4.80;;;;;;;;;;5016052;28;93493;-69
2022/06/04 01:16:11;;;;;;;7.00;5.30;;;;;;;;;;5033142;28;92458;-69
2022/06/04 01:18:48;;;;;;;8.32;5.13;;;;;;;;;;5035391;28;92716;-69
2022/06/04 01:21:17;;;;;;;4.10;3.47;;;;;;;;;;5023925;28;94119;-69
2022/06/04 01:23:50;;;;;;;7.57;5.40;;;;;;;;;;5014815;28;92500;-69
2022/06/04 01:26:35;;;;;;;8.68;5.60;;;;;;;;;;5015640;28;93153;-69
2022/06/04 01:29:07;;;;;;;6.63;5.78;;;;;;;;;;5016015;28;92915;-69
2022/06/04 01:31:39;;;;;;;6.07;5.15;;;;;;;;;;5024434;28;92519;-69
2022/06/04 01:34:08;;;;;;;8.10;5.53;;;;;;;;;;5035593;28;92868;-69
2022/06/04 01:36:53;;;;;;;6.80;6.18;;;;;;;;;;5028725;28;94814;-69
2022/06/04 01:39:22;;;;;;;10.18;5.68;;;;;;;;;;5015454;28;95725;-69
2022/06/04 01:41:59;;;;;;;8.18;5.32;;;;;;;;;;5015034;28;93180;-69
2022/06/04 01:44:31;;;;;;;7.72;5.55;;;;;;;;;;5014300;28;92433;-69
2022/06/04 01:47:00;;;;;;;12.48;6.07;;;;;;;;;;5015505;28;93745;-69
2022/06/04 01:49:42;;;;;;;9.40;5.45;;;;;;;;;;5015535;28;93843;-69
2022/06/04 01:52:11;;;;;;;12.32;6.40;;;;;;;;;;5014604;28;92486;-69
2022/06/04 01:54:39;;;;;;;7.05;5.50;;;;;;;;;;5018333;28;93955;-69
2022/06/04 01:57:11;;;;;;;10.30;5.55;;;;;;;;;;5015339;28;92528;-69
2022/06/04 01:59:46;;;;;;;7.32;5.80;;;;;;;;;;5013947;28;94499;-69
2022/06/04 02:02:17;;;;;;;8.38;6.03;;;;;;;;;;5012642;28;95840;-69
2022/06/04 02:04:47;;;;;;;6.15;5.55;;;;;;;;;;5014737;28;93230;-69
2022/06/04 02:07:30;;;;;;;8.15;5.65;;;;;;;;;;4995195;28;93040;-69
2022/06/04 02:10:16;;;;;;;7.00;6.15;;;;;;;;;;5006147;28;94235;-69
2022/06/04 02:12:44;;;;;;;7.38;5.40;;;;;;;;;;5006565;28;93065;-69
2022/06/04 02:15:12;;;;;;;6.32;5.72;;;;;;;;;;5015025;28;92486;-69
2022/06/04 02:17:40;;;;;;;6.47;5.03;;;;;;;;;;5017232;28;93464;-69
2022/06/04 02:20:07;;;;;;;6.65;5.47;;;;;;;;;;5014728;28;92944;-69
2022/06/04 02:22:34;;;;;;;11.15;5.68;;;;;;;;;;5014995;28;93767;-69
2022/06/04 02:25:01;;;;;;;10.13;5.90;;;;;;;;;;5014940;28;92474;-69
2022/06/04 02:27:28;;;;;;;8.27;5.57;;;;;;;;;;5012482;28;95345;-69
2022/06/04 02:29:54;;;;;;;8.70;5.82;;;;;;;;;;5014312;28;93649;-70
2022/06/04 02:32:27;;;;;;;7.72;5.05;;;;;;;;;;5014329;28;92516;-69
2022/06/04 02:34:54;;;;;;;7.97;6.30;;;;;;;;;;5014112;28;94155;-69
2022/06/04 02:37:46;;;;;;;9.90;6.38;;;;;;;;;;5014099;28;93596;-69
2022/06/04 02:40:26;;;;;;;10.63;7.25;;;;;;;;;;5011228;28;93071;-69
2022/06/04 02:42:54;;;;;;;5.40;4.68;;;;;;;;;;5034052;27;93215;-69
2022/06/04 02:45:27;;;;;;;8.85;6.18;;;;;;;;;;5034838;28;91754;-69
2022/06/04 02:47:57;;;;;;;9.43;5.57;;;;;;;;;;5033798;28;92722;-69
2022/06/04 02:50:29;;;;;;;10.02;5.68;;;;;;;;;;5034328;28;93861;-69
2022/06/04 02:52:56;;;;;;;6.45;5.50;;;;;;;;;;5032542;28;94843;-69
2022/06/04 02:55:24;;;;;;;6.57;6.05;;;;;;;;;;4998395;28;96299;-69
2022/06/04 02:57:53;;;;;;;16.50;6.75;;;;;;;;;;5013398;27;93294;-69
2022/06/04 03:00:22;;;;;;;13.10;7.18;;;;;;;;;;5014206;28;92465;-69
2022/06/04 03:02:49;;;;;;;9.82;6.57;;;;;;;;;;5016132;28;93915;-69
2022/06/04 03:05:17;;;;;;;10.73;6.13;;;;;;;;;;5014154;28;92479;-69
2022/06/04 03:07:45;;;;;;;10.18;6.70;;;;;;;;;;5013645;28;94081;-69
2022/06/04 03:10:22;;;;;;;8.90;6.78;;;;;;;;;;5013320;28;92642;-69
2022/06/04 03:12:48;;;;;;;13.05;7.07;;;;;;;;;;5014602;28;92456;-69
2022/06/04 03:15:15;;;;;;;15.38;7.18;;;;;;;;;;5033362;28;93764;-69
2022/06/04 03:17:44;;;;;;;7.07;6.47;;;;;;;;;;5031882;28;96508;-69
2022/06/04 03:20:11;;;;;;;9.77;6.80;;;;;;;;;;5033890;27;92492;-69
2022/06/04 03:22:37;;;;;;;11.70;6.95;;;;;;;;;;5033155;28;93925;-69
2022/06/04 03:25:04;;;;;;;7.57;6.20;;;;;;;;;;5036536;27;93538;-69
2022/06/04 03:27:31;;;;;;;12.07;6.75;;;;;;;;;;5033755;28;93859;-69
2022/06/04 03:29:57;;;;;;;12.35;7.07;;;;;;;;;;5015065;28;94276;-69
2022/06/04 03:32:24;;;;;;;9.55;6.57;;;;;;;;;;5033701;27;93004;-69
2022/06/04 03:34:50;;;;;;;11.38;7.20;;;;;;;;;;5034560;27;93071;-69
2022/06/04 03:37:16;;;;;;;11.35;6.78;;;;;;;;;;5032550;27;92491;-69
2022/06/04 03:39:43;;;;;;;16.70;7.07;;;;;;;;;;5032989;27;92565;-69
2022/06/04 03:42:09;;;;;;;9.43;6.15;;;;;;;;;;5032488;28;94949;-69
2022/06/04 03:44:36;;;;;;;15.75;7.80;;;;;;;;;;5034846;28;94252;-69
2022/06/04 03:47:02;;;;;;;11.90;6.75;;;;;;;;;;5032969;28;94024;-69
2022/06/04 03:49:29;;;;;;;15.27;6.28;;;;;;;;;;5033291;28;94068;-69
2022/06/04 03:51:55;;;;;;;12.85;6.00;;;;;;;;;;5033041;28;92459;-69
2022/06/04 03:54:52;;;;;;;14.57;7.55;;;;;;;;;;5033621;28;93518;-69
2022/06/04 03:59:53;;;;;;;15.70;7.80;;;;;;;;;;5014395;28;92263;-69
2022/06/04 04:02:19;;;;;;;7.68;6.47;;;;;;;;;;5013489;28;92531;-69
2022/06/04 04:04:46;;;;;;;13.02;7.00;;;;;;;;;;5020518;28;94289;-69
2022/06/04 04:07:14;;;;;;;10.73;6.85;;;;;;;;;;5034808;27;95487;-69
2022/06/04 04:09:41;;;;;;;13.10;7.30;;;;;;;;;;5023604;28;94482;-69
2022/06/04 04:12:07;;;;;;;12.00;6.78;;;;;;;;;;5012567;28;92533;-69
2022/06/04 04:14:41;;;;;;;13.15;6.35;;;;;;;;;;5013012;28;93827;-69
2022/06/04 04:17:08;;;;;;;11.05;6.65;;;;;;;;;;5012874;28;94288;-69
2022/06/04 04:19:34;;;;;;;12.38;6.55;;;;;;;;;;5012256;28;92474;-69
2022/06/04 04:22:01;;;;;;;10.98;7.35;;;;;;;;;;5023621;28;93885;-69
2022/06/04 04:24:27;;;;;;;8.80;6.45;;;;;;;;;;5033335;28;93611;-69
2022/06/04 04:26:54;;;;;;;12.15;5.53;;;;;;;;;;5032194;28;92445;-69
2022/06/04 04:29:21;;;;;;;8.70;5.93;;;;;;;;;;5019124;27;93042;-69
2022/06/04 04:31:47;;;;;;;14.20;5.97;;;;;;;;;;5010659;28;94839;-69
2022/06/04 04:34:14;;;;;;;8.57;5.50;;;;;;;;;;5011982;28;94203;-69
2022/06/04 04:36:40;;;;;;;11.88;6.70;;;;;;;;;;5012335;28;93422;-69
2022/06/04 04:39:07;;;;;;;11.13;6.57;;;;;;;;;;5024362;28;92520;-69
2022/06/04 04:41:33;;;;;;;12.57;6.38;;;;;;;;;;5031926;28;93982;-69
2022/06/04 04:43:59;;;;;;;5.45;4.93;;;;;;;;;;5032542;28;93091;-68
2022/06/04 04:46:26;;;;;;;7.10;5.75;;;;;;;;;;5032694;28;92497;-69
2022/06/04 04:48:52;;;;;;;10.90;5.97;;;;;;;;;;5032814;28;93973;-69
2022/06/04 04:51:20;;;;;;;11.52;6.13;;;;;;;;;;5035526;27;93314;-69
2022/06/04 04:53:47;;;;;;;10.98;5.95;;;;;;;;;;5028677;28;92937;-69
2022/06/04 04:56:14;;;;;;;9.10;6.28;;;;;;;;;;5007637;28;96533;-69
2022/06/04 04:58:40;;;;;;;9.07;5.78;;;;;;;;;;5014904;28;92633;-69
2022/06/04 05:01:17;;;;;;;13.52;6.20;;;;;;;;;;5015464;28;93889;-69
2022/06/04 05:03:44;;;;;;;8.85;6.20;;;;;;;;;;5015691;28;94473;-69
2022/06/04 05:06:12;;;;;;;11.65;6.20;;;;;;;;;;5015791;28;92937;-69
2022/06/04 05:08:38;;;;;;;14.45;5.95;;;;;;;;;;5014701;28;93033;-68
2022/06/04 05:11:12;;;;;;;14.82;6.10;;;;;;;;;;5015998;28;94002;-69
2022/06/04 05:13:39;;;;;;;8.95;5.93;;;;;;;;;;5035201;28;91728;-69
2022/06/04 05:16:05;;;;;;;17.33;6.43;;;;;;;;;;5021246;27;92827;-69
2022/06/04 05:18:32;;;;;;;12.00;6.00;;;;;;;;;;4995523;28;92561;-69
2022/06/04 05:21:08;;;;;;;13.40;6.38;;;;;;;;;;4993519;28;94859;-70
2022/06/04 05:23:34;;;;;;;11.57;6.25;;;;;;;;;;4992477;28;93393;-69
2022/06/04 05:26:01;;;;;;;10.52;6.25;;;;;;;;;;4993295;28;92691;-69
2022/06/04 05:28:27;;;;;;;11.98;6.70;;;;;;;;;;5005461;28;93326;-69
2022/06/04 05:30:54;;;;;;;12.63;6.05;;;;;;;;;;5017877;28;94289;-70
2022/06/04 05:33:20;;;;;;;8.85;5.93;;;;;;;;;;5015693;28;92484;-69
2022/06/04 05:35:47;;;;;;;14.23;5.43;;;;;;;;;;5017429;28;93779;-70
2022/06/04 05:38:13;;;;;;;14.30;6.95;;;;;;;;;;5016202;28;91711;-70
2022/06/04 05:40:40;;;;;;;5.20;4.75;;;;;;;;;;5014814;28;92521;-70
2022/06/04 05:43:06;;;;;;;9.00;5.57;;;;;;;;;;5014587;28;93270;-70
2022/06/04 05:45:32;;;;;;;9.65;5.80;;;;;;;;;;5013708;28;94871;-69
2022/06/04 05:48:00;;;;;;;9.77;5.55;;;;;;;;;;5016177;28;95327;-70
2022/06/04 05:50:26;;;;;;;9.35;5.43;;;;;;;;;;5014491;28;94238;-70
2022/06/04 05:52:52;;;;;;;7.25;4.75;;;;;;;;;;5015248;28;92446;-69
2022/06/04 05:55:19;;;;;;;10.52;5.07;;;;;;;;;;5018477;28;94228;-70
2022/06/04 05:57:45;;;;;;;10.82;5.22;;;;;;;;;;5014040;28;92588;-69
2022/06/04 06:00:12;;;;;;;6.80;4.93;;;;;;;;;;5015308;28;94094;-70
2022/06/04 06:02:38;;;;;;;10.85;5.40;;;;;;;;;;5015571;28;92440;-70
2022/06/04 06:05:05;;;;;;;9.20;5.40;;;;;;;;;;5014959;28;92485;-70
2022/06/04 06:07:31;;;;;;;9.68;4.10;;;;;;;;;;5014040;28;92801;-72
2022/06/04 06:09:58;;;;;;;9.77;5.28;;;;;;;;;;5013322;28;96760;-70
2022/06/04 06:12:24;;;;;;;7.18;4.85;;;;;;;;;;5014483;28;93141;-70
2022/06/04 06:14:50;;;;;;;10.00;5.82;;;;;;;;;;5015125;28;92995;-71
2022/06/04 06:17:17;;;;;;;11.27;6.78;;;;;;;;;;5017964;28;94703;-70
2022/06/04 06:19:43;;;;;;;11.45;5.65;;;;;;;;;;5014401;28;93286;-70
2022/06/04 06:22:09;;;;;;;10.23;6.15;;;;;;;;;;4994524;28;93995;-70
2022/06/04 06:24:36;;;;;;;9.40;5.05;;;;;;;;;;4994473;28;92510;-71
2022/06/04 06:27:02;;;;;;;8.35;5.80;;;;;;;;;;4995533;28;93055;-70
2022/06/04 06:29:30;;;;;;;7.28;4.68;;;;;;;;;;5014857;28;94653;-71
2022/06/04 06:31:57;;;;;;;8.57;5.03;;;;;;;;;;5014720;28;92476;-71
2022/06/04 06:34:24;;;;;;;15.35;6.15;;;;;;;;;;5012606;28;94913;-71
2022/06/04 06:36:50;;;;;;;11.73;5.50;;;;;;;;;;5014874;28;94260;-71
2022/06/04 06:39:17;;;;;;;9.00;5.22;;;;;;;;;;5017049;28;92890;-71
2022/06/04 06:41:44;;;;;;;7.93;5.05;;;;;;;;;;5014158;28;94152;-70
2022/06/04 06:44:11;;;;;;;9.35;5.57;;;;;;;;;;5014473;28;92476;-70
2022/06/04 06:46:39;;;;;;;13.82;5.57;;;;;;;;;;5013941;28;93001;-70
2022/06/04 06:49:05;;;;;;;9.52;6.40;;;;;;;;;;5014352;28;93260;-70
2022/06/04 06:51:35;;;;;;;12.77;5.60;;;;;;;;;;5014701;28;91684;-70
2022/06/04 06:54:01;;;;;;;5.93;4.68;;;;;;;;;;5014270;28;92705;-70
2022/06/04 06:56:29;;;;;;;9.75;5.22;;;;;;;;;;5014013;28;94073;-70
2022/06/04 06:58:56;;;;;;;6.80;4.70;;;;;;;;;;5012021;28;94904;-71
2022/06/04 07:01:24;;;;;;;7.82;4.82;;;;;;;;;;5028728;28;95420;-70
2022/06/04 07:03:51;;;;;;;5.43;4.85;;;;;;;;;;5016934;28;92463;-72
2022/06/04 07:06:27;;;;;;;5.80;4.80;;;;;;;;;;4991418;28;94274;-71
2022/06/04 07:08:54;;;;;;;7.78;5.13;;;;;;;;;;4993105;28;94691;-71
2022/06/04 07:11:20;;;;;;;13.23;4.85;;;;;;;;;;5006803;28;92509;-71
2022/06/04 07:13:46;;;;;;;7.03;4.25;;;;;;;;;;5017059;28;93121;-71
2022/06/04 07:16:13;;;;;;;10.80;4.75;;;;;;;;;;5010315;28;93151;-71
2022/06/04 07:18:39;;;;;;;8.20;4.00;;;;;;;;;;4992665;28;92470;-71
2022/06/04 07:21:06;;;;;;;11.05;4.30;;;;;;;;;;4997551;28;93038;-71
2022/06/04 07:23:34;;;;;;;5.75;3.88;;;;;;;;;;5006840;28;96105;-71
2022/06/04 07:26:01;;;;;;;6.10;4.28;;;;;;;;;;4994140;28;96379;-71
2022/06/04 07:28:28;;;;;;;6.00;3.80;;;;;;;;;;4994901;28;94012;-70
2022/06/04 07:30:54;;;;;;;8.95;4.65;;;;;;;;;;4989334;28;92570;-70
2022/06/04 07:33:21;;;;;;;5.05;4.47;;;;;;;;;;4990559;28;93946;-71
2022/06/04 07:35:48;;;;;;;5.43;4.32;;;;;;;;;;4998380;27;93250;-71
2022/06/04 07:38:15;;;;;;;8.05;4.00;;;;;;;;;;4997711;27;94805;-70
2022/06/04 07:40:41;;;;;;;10.10;4.35;;;;;;;;;;4994705;28;93712;-70
2022/06/04 07:43:07;;;;;;;6.03;3.90;;;;;;;;;;4992908;28;94450;-70
2022/06/04 07:45:34;;;;;;;9.95;4.68;;;;;;;;;;4996792;28;96028;-70
2022/06/04 07:48:02;;;;;;;8.85;4.18;;;;;;;;;;4994086;28;96694;-70
2022/06/04 07:50:30;;;;;;;9.70;3.97;;;;;;;;;;4998205;28;93803;-74
2022/06/04 07:52:58;;;;;;;8.93;4.88;;;;;;;;;;5001593;28;93934;-70
2022/06/04 07:55:27;;;;;;;10.32;4.55;;;;;;;;;;4996151;28;93273;-70
2022/06/04 07:57:54;;;;;;;6.85;4.57;;;;;;;;;;4996045;28;94100;-70
2022/06/04 08:00:25;;;;;;;9.77;4.70;;;;;;;;;;4991836;28;92657;-70
2022/06/04 08:02:53;;;;;;;8.38;5.00;;;;;;;;;;4994313;28;93148;-69
2022/06/04 08:05:25;;;;;;;5.38;3.78;;;;;;;;;;4972898;28;92791;-70
2022/06/04 08:07:52;;;;;;;7.95;4.78;;;;;;;;;;4997916;28;93851;-72
2022/06/04 08:10:23;;;;;;;8.45;4.78;;;;;;;;;;4995940;28;92594;-71
2022/06/04 08:12:57;;;;;;;16.05;5.35;;;;;;;;;;4989787;28;94865;-70
2022/06/04 08:15:45;;;;;;;4.75;4.35;;;;;;;;;;5002981;28;93153;-70
2022/06/04 08:18:16;;;;;;;10.23;4.63;;;;;;;;;;4992975;28;92740;-69
2022/06/04 08:20:45;;;;;;;7.18;4.57;;;;;;;;;;5010169;28;92980;-70
2022/06/04 08:23:12;;;;;;;7.70;4.20;;;;;;;;;;5008478;28;94106;-70
2022/06/04 08:25:41;;;;;;;4.90;4.47;;;;;;;;;;4992393;28;92531;-70
2022/06/04 08:28:14;;;;;;;6.60;4.30;;;;;;;;;;5004849;28;92894;-70
2022/06/04 08:31:04;;;;;;;8.00;4.93;;;;;;;;;;4995209;28;92859;-70
2022/06/04 08:33:34;;;;;;;6.38;4.75;;;;;;;;;;5002876;28;94201;-70
2022/06/04 08:36:00;;;;;;;6.38;3.90;;;;;;;;;;4996199;28;93030;-71
2022/06/04 08:38:26;;;;;;;9.82;5.18;;;;;;;;;;5000150;28;94882;-71
2022/06/04 08:40:57;;;;;;;6.38;4.97;;;;;;;;;;4999080;28;96619;-71
2022/06/04 08:43:29;;;;;;;5.78;4.30;;;;;;;;;;4996316;28;94194;-71
2022/06/04 08:45:56;;;;;;;5.10;3.83;;;;;;;;;;5001426;28;94717;-71
2022/06/04 08:48:31;;;;;;;8.45;4.65;;;;;;;;;;5007568;28;95079;-71
2022/06/04 08:50:58;;;;;;;5.82;4.70;;;;;;;;;;5003583;28;94200;-71
2022/06/04 08:53:27;;;;;;;11.52;4.70;;;;;;;;;;5003467;28;92783;-71
2022/06/04 08:58:50;;;;;;;7.07;4.43;;;;;;;;;;5014230;28;92854;-71
2022/06/04 09:01:19;;;;;;;9.00;4.93;;;;;;;;;;4998817;28;93041;-70
2022/06/04 09:04:04;;;;;;;7.00;4.60;;;;;;;;;;4997053;28;96692;-71
2022/06/04 09:06:45;;;;;;;10.50;4.03;;;;;;;;;;5004326;28;92763;-71
2022/06/04 09:09:23;;;;;;;13.13;4.90;;;;;;;;;;5009134;28;95023;-71
2022/06/04 09:11:56;;;;;;;5.38;4.15;;;;;;;;;;4997095;28;94680;-71
2022/06/04 09:14:29;;;;;;;4.13;3.53;;;;;;;;;;5002021;28;93171;-71
2022/06/04 09:17:07;;;;;;;7.63;4.03;;;;;;;;;;4998033;28;94196;-70
2022/06/04 09:19:37;;;;;;;6.78;4.05;;;;;;;;;;5005169;28;93337;-71
2022/06/04 09:22:13;;;;;;;6.93;4.25;;;;;;;;;;4999983;28;94153;-69
2022/06/04 09:24:50;;;;;;;4.85;3.60;;;;;;;;;;4995256;28;94450;-69
2022/06/04 09:27:28;;;;;;;4.25;3.53;;;;;;;;;;4996339;28;93503;-68
2022/06/04 09:30:11;;;;;;;5.43;3.75;;;;;;;;;;4994660;28;94970;-69
2022/06/04 09:32:46;;;;;;;18.45;4.35;;;;;;;;;;4991104;28;92859;-70
2022/06/04 09:35:22;;;;;;;7.28;3.55;;;;;;;;;;4995699;28;94873;-70
2022/06/04 09:37:49;;;;;;;5.40;4.05;;;;;;;;;;4996738;28;93966;-73
2022/06/04 09:40:21;;;;;;;8.55;4.50;;;;;;;;;;4990355;28;93507;-72
2022/06/04 09:42:48;;;;;;;6.93;4.00;;;;;;;;;;4992308;28;93976;-73
2022/06/04 09:45:36;;;;;;;7.38;3.67;;;;;;;;;;4995171;28;94108;-70
2022/06/04 09:48:12;;;;;;;4.28;3.88;;;;;;;;;;4998034;28;92753;-71
2022/06/04 09:50:38;;;;;;;6.95;4.38;;;;;;;;;;5001663;28;92605;-71
2022/06/04 09:53:18;;;;;;;3.70;3.40;;;;;;;;;;5006661;28;94028;-70
2022/06/04 09:56:05;;;;;;;6.28;3.53;;;;;;;;;;4999468;28;94905;-72
2022/06/04 09:58:39;;;;;;;5.80;3.85;;;;;;;;;;5005216;28;96652;-70
2022/06/04 10:01:16;;;;;;;5.75;3.42;;;;;;;;;;5000446;28;92618;-71
2022/06/04 10:03:45;;;;;;;6.63;3.00;;;;;;;;;;4995586;28;94165;-70
2022/06/04 10:06:23;;;;;;;5.25;3.28;;;;;;;;;;4999949;28;94165;-70
2022/06/04 10:11:52;;;;;;;4.30;3.65;;;;;;;;;;5003401;28;92576;-69
2022/06/04 10:14:37;;;;;;;3.78;3.40;;;;;;;;;;5000644;28;93914;-70
2022/06/04 10:17:16;;;;;;;9.25;3.75;;;;;;;;;;5000349;28;92661;-70
2022/06/04 10:19:52;;;;;;;6.45;3.33;;;;;;;;;;5000729;28;93072;-70
2022/06/04 10:22:19;;;;;;;7.35;3.63;;;;;;;;;;5005085;28;95604;-70
2022/06/04 10:24:48;;;;;;;3.95;3.55;;;;;;;;;;4996122;28;96313;-70
2022/06/04 10:27:33;;;;;;;3.78;3.08;;;;;;;;;;4998640;28;94092;-70
2022/06/04 10:30:00;;;;;;;5.13;3.38;;;;;;;;;;5001209;28;92582;-70
2022/06/04 10:32:32;;;;;;;7.28;3.65;;;;;;;;;;4997877;27;92808;-70
2022/06/04 10:35:25;;;;;;;4.65;3.45;;;;;;;;;;5003069;28;94273;-70
2022/06/04 10:37:56;;;;;;;4.13;3.47;;;;;;;;;;5007825;28;92493;-70
2022/06/04 10:40:36;;;;;;;7.72;3.55;;;;;;;;;;4997302;28;93215;-70
2022/06/04 10:43:28;;;;;;;3.55;3.25;;;;;;;;;;4997926;28;95938;-70
2022/06/04 10:46:00;;;;;;;7.43;3.80;;;;;;;;;;5000263;28;94003;-69
2022/06/04 10:48:30;;;;;;;3.67;3.38;;;;;;;;;;4994072;28;95802;-70
2022/06/04 10:53:49;;;;;;;5.70;3.40;;;;;;;;;;4993616;28;94839;-70
2022/06/04 10:56:17;;;;;;;3.70;3.40;;;;;;;;;;4996064;28;93343;-71
2022/06/04 10:58:47;;;;;;;3.72;3.38;;;;;;;;;;5010199;28;92546;-71
2022/06/04 11:01:26;;;;;;;8.05;3.97;;;;;;;;;;5010706;28;93164;-70
2022/06/04 11:04:01;;;;;;;9.27;3.85;;;;;;;;;;5013308;28;93564;-70
2022/06/04 11:06:30;;;;;;;7.05;3.70;;;;;;;;;;5008919;28;91809;-71
2022/06/04 11:09:03;;;;;;;3.55;3.00;;;;;;;;;;4999455;28;93140;-71
2022/06/04 11:11:40;;;;;;;4.78;3.35;;;;;;;;;;4996992;28;92758;-71
2022/06/04 11:14:10;;;;;;;5.65;3.42;;;;;;;;;;5007486;28;95324;-71
2022/06/04 11:16:46;;;;;;;5.25;4.05;;;;;;;;;;5002618;28;93390;-72
2022/06/04 11:19:22;;;;;;;4.18;3.80;;;;;;;;;;4996814;27;92719;-72
2022/06/04 11:22:14;;;;;;;6.55;3.60;;;;;;;;;;4989403;28;93366;-72
2022/06/04 11:25:08;;;;;;;5.75;4.07;;;;;;;;;;4994764;28;93665;-71
2022/06/04 11:27:45;;;;;;;5.90;4.68;;;;;;;;;;5004030;28;92594;-70
2022/06/04 11:30:17;;;;;;;8.90;4.30;;;;;;;;;;5002703;27;93169;-70
2022/06/04 11:33:06;;;;;;;5.70;4.20;;;;;;;;;;4998534;28;93050;-70
2022/06/04 11:36:09;;;;;;;6.82;4.85;;;;;;;;;;4994071;28;94274;-70
2022/06/04 11:38:43;;;;;;;3.90;3.58;;;;;;;;;;4998377;28;93761;-70
2022/06/04 11:41:21;;;;;;;10.93;4.05;;;;;;;;;;4996883;28;96619;-70
2022/06/04 11:44:20;;;;;;;7.13;4.40;;;;;;;;;;4996737;28;94212;-70
2022/06/04 11:47:05;;;;;;;8.00;4.45;;;;;;;;;;4963807;28;94198;-70
2022/06/04 11:49:32;;;;;;;9.25;3.67;;;;;;;;;;5001686;28;92765;-70
2022/06/04 11:52:08;;;;;;;6.93;3.58;;;;;;;;;;4996409;28;93894;-70
2022/06/04 11:54:54;;;;;;;4.95;3.80;;;;;;;;;;5000659;28;94398;-70
2022/06/04 11:57:37;;;;;;;5.32;4.05;;;;;;;;;;4994161;28;94194;-70
2022/06/04 12:00:24;;;;;;;5.75;3.70;;;;;;;;;;4996667;28;93930;-69
2022/06/04 12:02:57;;;;;;;5.45;3.72;;;;;;;;;;5000092;28;92656;-71
2022/06/04 12:05:41;;;;;;;5.90;4.30;;;;;;;;;;5000911;28;93432;-71
2022/06/04 12:08:16;;;;;;;5.43;4.03;;;;;;;;;;4991508;28;95947;-71
2022/06/04 12:10:43;;;;;;;5.40;3.97;;;;;;;;;;4992621;28;92743;-72
2022/06/04 12:13:19;;;;;;;13.88;4.18;;;;;;;;;;4993198;28;93257;-72
2022/06/04 12:16:02;;;;;;;6.22;4.05;;;;;;;;;;4993282;28;93539;-72
2022/06/04 12:18:34;;;;;;;8.55;3.33;;;;;;;;;;4995546;28;92398;-72
2022/06/04 12:24:18;;;;;;;6.40;4.03;;;;;;;;;;4995824;27;93409;-73
2022/06/04 12:26:47;;;;;;;7.93;3.72;;;;;;;;;;4996054;28;93262;-72
2022/06/04 12:29:29;;;;;;;2.85;2.63;;;;;;;;;;5002473;28;94858;-72
2022/06/04 12:31:57;;;;;;;4.27;2.30;;;;;;;;;;4996795;28;93634;-72
2022/06/04 12:34:24;;;;;;;3.35;2.28;;;;;;;;;;4994614;28;96872;-74
2022/06/04 12:36:52;;;;;;;4.47;2.80;;;;;;;;;;4996830;28;94681;-74
2022/06/04 12:39:26;;;;;;;4.32;2.00;;;;;;;;;;4994417;28;94234;-74
2022/06/04 12:41:56;;;;;;;3.42;2.40;;;;;;;;;;4998182;28;94394;-71
2022/06/04 12:44:32;;;;;;;8.05;2.60;;;;;;;;;;4995766;28;94237;-71
2022/06/04 12:47:18;;;;;;;3.03;2.40;;;;;;;;;;4995979;28;93422;-74
2022/06/04 12:49:50;;;;;;;2.58;2.35;;;;;;;;;;4993642;28;93355;-74
2022/06/04 12:52:37;;;;;;;4.55;2.40;;;;;;;;;;4996021;28;92532;-72
2022/06/04 12:55:22;;;;;;;3.58;2.60;;;;;;;;;;4993006;28;94895;-71
2022/06/04 12:57:50;;;;;;;3.30;2.40;;;;;;;;;;4991624;28;94488;-72
2022/06/04 13:00:18;;;;;;;2.67;2.45;;;;;;;;;;4994117;28;97091;-72
2022/06/04 13:02:58;;;;;;;3.83;2.92;;;;;;;;;;4996845;28;96070;-72
2022/06/04 13:05:26;;;;;;;2.78;2.50;;;;;;;;;;4998412;28;94343;-72
2022/06/04 13:08:06;;;;;;;9.18;2.42;;;;;;;;;;4994084;28;94416;-74
2022/06/04 13:10:33;;;;;;;4.28;2.22;;;;;;;;;;4998842;27;95524;-71
2022/06/04 13:13:03;;;;;;;2.50;2.30;;;;;;;;;;4993197;28;94266;-72
2022/06/04 13:15:52;;;;;;;4.95;2.38;;;;;;;;;;4995870;28;93917;-72
2022/06/04 13:18:31;;;;;;;5.72;2.58;;;;;;;;;;4999641;28;93622;-72
2022/06/04 13:20:58;;;;;;;4.10;3.70;;;;;;;;;;4998031;28;93177;-72
2022/06/04 13:23:34;;;;;;;6.90;3.53;;;;;;;;;;4999178;28;94645;-73
2022/06/04 13:26:19;;;;;;;7.25;3.80;;;;;;;;;;4996225;28;96293;-72
2022/06/04 13:28:46;;;;;;;5.22;3.55;;;;;;;;;;5002131;28;92599;-72
2022/06/04 13:31:16;;;;;;;4.32;2.95;;;;;;;;;;5002755;28;94068;-72
2022/06/04 13:33:42;;;;;;;4.57;3.22;;;;;;;;;;5000402;28;94198;-72
2022/06/04 13:36:10;;;;;;;4.00;3.70;;;;;;;;;;5003040;28;93934;-72
2022/06/04 13:38:45;;;;;;;9.98;3.30;;;;;;;;;;5005418;28;94356;-73
2022/06/04 13:41:16;;;;;;;3.97;3.05;;;;;;;;;;4999255;28;92863;-72
2022/06/04 13:43:46;;;;;;;6.20;3.22;;;;;;;;;;5004197;28;93286;-72
2022/06/04 13:46:17;;;;;;;3.70;3.40;;;;;;;;;;5001722;28;94045;-72
2022/06/04 13:49:03;;;;;;;3.53;3.20;;;;;;;;;;5013389;28;92530;-72
2022/06/04 13:51:29;;;;;;;3.75;2.95;;;;;;;;;;5016869;28;95016;-72
2022/06/04 13:53:56;;;;;;;3.55;3.15;;;;;;;;;;5000370;28;93145;-73
2022/06/04 13:56:34;;;;;;;3.22;2.65;;;;;;;;;;4997059;28;92836;-73
2022/06/04 13:59:01;;;;;;;2.75;2.53;;;;;;;;;;5001917;28;93226;-73
2022/06/04 14:01:37;;;;;;;5.72;3.47;;;;;;;;;;4996958;28;94557;-73
2022/06/04 14:06:54;;;;;;;2.80;2.60;;;;;;;;;;5001099;28;95124;-72
2022/06/04 14:09:22;;;;;;;4.47;3.15;;;;;;;;;;5012790;28;91755;-74
2022/06/04 14:12:10;;;;;;;4.28;2.42;;;;;;;;;;5010138;28;93367;-73
2022/06/04 14:14:43;;;;;;;5.93;2.50;;;;;;;;;;5001306;28;94182;-72
2022/06/04 14:17:13;;;;;;;3.80;2.25;;;;;;;;;;4995314;28;95733;-72
2022/06/04 14:19:39;;;;;;;4.88;3.00;;;;;;;;;;5002060;28;93305;-72
2022/06/04 14:22:10;;;;;;;3.97;2.60;;;;;;;;;;5006921;28;92498;-73
2022/06/04 14:24:56;;;;;;;3.80;2.80;;;;;;;;;;5008016;28;94009;-73
2022/06/04 14:27:42;;;;;;;3.35;2.70;;;;;;;;;;4999153;28;94116;-73
2022/06/04 14:30:12;;;;;;;4.03;2.78;;;;;;;;;;4995651;27;92543;-72
2022/06/04 14:32:41;;;;;;;2.92;2.67;;;;;;;;;;4995191;28;94440;-72
2022/06/04 14:35:16;;;;;;;5.57;2.72;;;;;;;;;;5013414;28;93837;-72
2022/06/04 14:37:43;;;;;;;6.72;3.10;;;;;;;;;;4997340;28;92572;-73
2022/06/04 14:40:11;;;;;;;8.23;2.90;;;;;;;;;;5012143;28;94136;-72
2022/06/04 14:42:43;;;;;;;3.33;3.03;;;;;;;;;;5007147;28;94869;-73
2022/06/04 14:45:19;;;;;;;5.00;2.85;;;;;;;;;;4994116;28;95600;-72
2022/06/04 14:48:04;;;;;;;5.13;2.67;;;;;;;;;;4994497;28;94226;-73
2022/06/04 14:50:34;;;;;;;3.30;3.00;;;;;;;;;;5012889;27;92628;-76
2022/06/04 14:53:02;;;;;;;4.90;3.22;;;;;;;;;;4994181;28;92923;-75
2022/06/04 14:55:31;;;;;;;3.25;2.97;;;;;;;;;;4994031;28;93893;-76
2022/06/04 14:58:20;;;;;;;4.10;3.72;;;;;;;;;;4994786;28;92652;-74
2022/06/04 15:01:07;;;;;;;3.47;3.17;;;;;;;;;;4994404;28;92701;-71
2022/06/04 15:03:33;;;;;;;5.20;3.33;;;;;;;;;;4994415;28;92534;-71
2022/06/04 15:06:01;;;;;;;5.07;2.95;;;;;;;;;;4994110;28;92420;-71
2022/06/04 15:08:32;;;;;;;7.35;3.00;;;;;;;;;;4992343;28;96305;-71
2022/06/04 15:11:08;;;;;;;2.80;2.60;;;;;;;;;;4994785;28;92444;-72
2022/06/04 15:13:35;;;;;;;8.80;3.13;;;;;;;;;;5001710;28;93727;-71
2022/06/04 15:16:10;;;;;;;5.32;3.17;;;;;;;;;;5013948;28;94222;-71
2022/06/04 15:18:55;;;;;;;3.20;2.75;;;;;;;;;;5013603;28;92694;-71
2022/06/04 15:21:40;;;;;;;3.20;2.72;;;;;;;;;;5016076;28;93567;-72
2022/06/04 15:24:26;;;;;;;4.55;3.53;;;;;;;;;;5013562;28;92479;-71
2022/06/04 15:27:04;;;;;;;3.50;3.20;;;;;;;;;;5013700;28;94506;-72
2022/06/04 15:35:28;;;;;;;7.25;2.78;;;;;;;;;;4992452;28;94937;-71